sensor_id;sensor_type;location;lat;lon;timestamp;temperature;humidity
69328;DHT22;56472;52.114;5.492;2023-02-28T00:00:23;5.30;66.70
69328;DHT22;56472;52.114;5.492;2023-02-28T00:02:49;5.30;66.70
69328;DHT22;56472;52.114;5.492;2023-02-28T00:05:19;5.30;66.70
69328;DHT22;56472;52.114;5.492;2023-02-28T00:07:47;5.30;66.70
69328;DHT22;56472;52.114;5.492;2023-02-28T00:10:17;5.30;66.80
69328;DHT22;56472;52.114;5.492;2023-02-28T00:12:48;5.20;67.00
69328;DHT22;56472;52.114;5.492;2023-02-28T00:15:16;5.20;67.30
69328;DHT22;56472;52.114;5.492;2023-02-28T00:17:43;5.30;67.50
69328;DHT22;56472;52.114;5.492;2023-02-28T00:20:12;5.30;67.60
69328;DHT22;56472;52.114;5.492;2023-02-28T00:22:42;5.30;68.10
69328;DHT22;56472;52.114;5.492;2023-02-28T00:25:11;5.30;67.90
69328;DHT22;56472;52.114;5.492;2023-02-28T00:27:39;5.30;68.00
69328;DHT22;56472;52.114;5.492;2023-02-28T00:30:08;5.30;68.10
69328;DHT22;56472;52.114;5.492;2023-02-28T00:32:36;5.40;69.00
69328;DHT22;56472;52.114;5.492;2023-02-28T00:35:04;5.40;68.20
69328;DHT22;56472;52.114;5.492;2023-02-28T00:37:31;5.40;68.20
69328;DHT22;56472;52.114;5.492;2023-02-28T00:39:59;5.40;68.20
69328;DHT22;56472;52.114;5.492;2023-02-28T00:42:26;5.40;68.20
69328;DHT22;56472;52.114;5.492;2023-02-28T00:44:53;5.40;68.30
69328;DHT22;56472;52.114;5.492;2023-02-28T00:47:20;5.50;68.40
69328;DHT22;56472;52.114;5.492;2023-02-28T00:49:48;5.50;68.40
69328;DHT22;56472;52.114;5.492;2023-02-28T00:52:14;5.50;68.50
69328;DHT22;56472;52.114;5.492;2023-02-28T00:54:41;5.50;68.70
69328;DHT22;56472;52.114;5.492;2023-02-28T00:57:08;5.50;68.90
69328;DHT22;56472;52.114;5.492;2023-02-28T00:59:35;5.50;69.00
69328;DHT22;56472;52.114;5.492;2023-02-28T01:02:02;5.60;69.10
69328;DHT22;56472;52.114;5.492;2023-02-28T01:04:29;5.60;69.20
69328;DHT22;56472;52.114;5.492;2023-02-28T01:06:59;5.60;69.30
69328;DHT22;56472;52.114;5.492;2023-02-28T01:09:28;5.70;69.40
69328;DHT22;56472;52.114;5.492;2023-02-28T01:11:55;5.70;69.50
69328;DHT22;56472;52.114;5.492;2023-02-28T01:14:23;5.70;69.50
69328;DHT22;56472;52.114;5.492;2023-02-28T01:16:50;5.80;69.60
69328;DHT22;56472;52.114;5.492;2023-02-28T01:19:18;5.80;69.60
69328;DHT22;56472;52.114;5.492;2023-02-28T01:21:45;5.80;69.70
69328;DHT22;56472;52.114;5.492;2023-02-28T01:24:12;5.80;69.60
69328;DHT22;56472;52.114;5.492;2023-02-28T01:26:39;5.80;69.70
69328;DHT22;56472;52.114;5.492;2023-02-28T01:29:07;5.80;69.70
69328;DHT22;56472;52.114;5.492;2023-02-28T01:31:34;5.80;69.70
69328;DHT22;56472;52.114;5.492;2023-02-28T01:34:01;5.90;69.80
69328;DHT22;56472;52.114;5.492;2023-02-28T01:36:29;5.90;70.60
69328;DHT22;56472;52.114;5.492;2023-02-28T01:38:56;5.90;69.80
69328;DHT22;56472;52.114;5.492;2023-02-28T01:41:28;5.90;69.80
69328;DHT22;56472;52.114;5.492;2023-02-28T01:44:53;5.90;69.80
69328;DHT22;56472;52.114;5.492;2023-02-28T01:46:55;5.90;69.80
69328;DHT22;56472;52.114;5.492;2023-02-28T01:49:22;5.90;69.80
69328;DHT22;56472;52.114;5.492;2023-02-28T01:51:50;5.90;69.80
69328;DHT22;56472;52.114;5.492;2023-02-28T01:54:22;6.00;69.80
69328;DHT22;56472;52.114;5.492;2023-02-28T01:57:13;6.00;69.80
69328;DHT22;56472;52.114;5.492;2023-02-28T01:59:45;6.00;69.80
69328;DHT22;56472;52.114;5.492;2023-02-28T02:02:19;6.00;69.80
69328;DHT22;56472;52.114;5.492;2023-02-28T02:05:05;6.00;69.80
69328;DHT22;56472;52.114;5.492;2023-02-28T02:07:35;6.00;69.80
69328;DHT22;56472;52.114;5.492;2023-02-28T02:10:16;6.00;69.90
69328;DHT22;56472;52.114;5.492;2023-02-28T02:15:26;6.00;69.90
69328;DHT22;56472;52.114;5.492;2023-02-28T02:17:59;6.00;70.00
69328;DHT22;56472;52.114;5.492;2023-02-28T02:29:35;6.10;70.20
69328;DHT22;56472;52.114;5.492;2023-02-28T02:31:45;6.10;70.20
69328;DHT22;56472;52.114;5.492;2023-02-28T02:34:55;6.10;70.30
69328;DHT22;56472;52.114;5.492;2023-02-28T02:37:31;6.10;70.30
69328;DHT22;56472;52.114;5.492;2023-02-28T02:40:15;6.10;70.30
69328;DHT22;56472;52.114;5.492;2023-02-28T02:43:01;6.10;70.40
69328;DHT22;56472;52.114;5.492;2023-02-28T02:45:40;6.10;70.50
69328;DHT22;56472;52.114;5.492;2023-02-28T02:48:11;6.10;70.50
69328;DHT22;56472;52.114;5.492;2023-02-28T02:50:43;6.20;70.60
69328;DHT22;56472;52.114;5.492;2023-02-28T02:53:13;6.10;70.50
69328;DHT22;56472;52.114;5.492;2023-02-28T02:55:44;6.20;70.60
69328;DHT22;56472;52.114;5.492;2023-02-28T02:58:17;6.20;70.60
69328;DHT22;56472;52.114;5.492;2023-02-28T03:00:50;6.20;70.60
69328;DHT22;56472;52.114;5.492;2023-02-28T03:03:20;6.20;70.60
69328;DHT22;56472;52.114;5.492;2023-02-28T03:05:57;6.20;70.50
69328;DHT22;56472;52.114;5.492;2023-02-28T03:08:25;6.20;70.50
69328;DHT22;56472;52.114;5.492;2023-02-28T03:10:58;6.20;70.50
69328;DHT22;56472;52.114;5.492;2023-02-28T03:16:15;6.30;70.60
69328;DHT22;56472;52.114;5.492;2023-02-28T03:21:40;6.30;70.60
69328;DHT22;56472;52.114;5.492;2023-02-28T03:24:21;6.30;70.60
69328;DHT22;56472;52.114;5.492;2023-02-28T03:27:04;6.30;70.70
69328;DHT22;56472;52.114;5.492;2023-02-28T03:29:34;6.30;70.70
69328;DHT22;56472;52.114;5.492;2023-02-28T03:32:24;6.30;70.70
69328;DHT22;56472;52.114;5.492;2023-02-28T03:35:00;6.30;70.80
69328;DHT22;56472;52.114;5.492;2023-02-28T03:37:32;6.30;70.80
69328;DHT22;56472;52.114;5.492;2023-02-28T03:40:09;6.30;70.80
69328;DHT22;56472;52.114;5.492;2023-02-28T03:42:42;6.30;70.80
69328;DHT22;56472;52.114;5.492;2023-02-28T03:45:30;6.30;70.80
69328;DHT22;56472;52.114;5.492;2023-02-28T03:48:08;6.30;71.00
69328;DHT22;56472;52.114;5.492;2023-02-28T03:53:16;6.30;71.00
69328;DHT22;56472;52.114;5.492;2023-02-28T03:55:48;6.30;71.00
69328;DHT22;56472;52.114;5.492;2023-02-28T04:00:49;6.30;71.00
69328;DHT22;56472;52.114;5.492;2023-02-28T04:03:19;6.30;71.00
69328;DHT22;56472;52.114;5.492;2023-02-28T04:05:50;6.30;71.10
69328;DHT22;56472;52.114;5.492;2023-02-28T04:08:18;6.30;71.20
69328;DHT22;56472;52.114;5.492;2023-02-28T04:11:32;6.30;71.20
69328;DHT22;56472;52.114;5.492;2023-02-28T04:13:37;6.30;71.10
69328;DHT22;56472;52.114;5.492;2023-02-28T04:16:08;6.30;70.90
69328;DHT22;56472;52.114;5.492;2023-02-28T04:18:50;6.30;70.40
69328;DHT22;56472;52.114;5.492;2023-02-28T04:21:17;6.30;70.10
69328;DHT22;56472;52.114;5.492;2023-02-28T04:23:47;6.30;70.00
69328;DHT22;56472;52.114;5.492;2023-02-28T04:26:14;6.30;69.70
69328;DHT22;56472;52.114;5.492;2023-02-28T04:28:41;6.30;69.70
69328;DHT22;56472;52.114;5.492;2023-02-28T04:31:08;6.30;70.50
69328;DHT22;56472;52.114;5.492;2023-02-28T04:33:36;6.30;69.60
69328;DHT22;56472;52.114;5.492;2023-02-28T04:36:05;6.30;69.40
69328;DHT22;56472;52.114;5.492;2023-02-28T04:38:38;6.30;69.40
69328;DHT22;56472;52.114;5.492;2023-02-28T04:41:05;6.30;69.40
69328;DHT22;56472;52.114;5.492;2023-02-28T04:43:32;6.20;69.20
69328;DHT22;56472;52.114;5.492;2023-02-28T04:46:02;6.30;69.20
69328;DHT22;56472;52.114;5.492;2023-02-28T04:48:31;6.30;69.00
69328;DHT22;56472;52.114;5.492;2023-02-28T04:51:09;6.20;68.80
69328;DHT22;56472;52.114;5.492;2023-02-28T04:53:37;6.20;68.70
69328;DHT22;56472;52.114;5.492;2023-02-28T04:56:05;6.20;68.70
69328;DHT22;56472;52.114;5.492;2023-02-28T04:58:33;6.20;68.60
69328;DHT22;56472;52.114;5.492;2023-02-28T05:01:06;6.20;68.60
69328;DHT22;56472;52.114;5.492;2023-02-28T05:03:39;6.20;68.70
69328;DHT22;56472;52.114;5.492;2023-02-28T05:06:10;6.20;68.50
69328;DHT22;56472;52.114;5.492;2023-02-28T05:08:37;6.10;68.40
69328;DHT22;56472;52.114;5.492;2023-02-28T05:11:07;6.10;68.40
69328;DHT22;56472;52.114;5.492;2023-02-28T05:13:38;6.10;68.60
69328;DHT22;56472;52.114;5.492;2023-02-28T05:16:05;6.10;68.70
69328;DHT22;56472;52.114;5.492;2023-02-28T05:18:33;6.10;68.80
69328;DHT22;56472;52.114;5.492;2023-02-28T05:21:00;6.10;68.80
69328;DHT22;56472;52.114;5.492;2023-02-28T05:23:29;6.10;69.70
69328;DHT22;56472;52.114;5.492;2023-02-28T05:25:56;6.00;68.90
69328;DHT22;56472;52.114;5.492;2023-02-28T05:28:23;6.00;69.00
69328;DHT22;56472;52.114;5.492;2023-02-28T05:30:50;6.00;69.10
69328;DHT22;56472;52.114;5.492;2023-02-28T05:33:17;6.00;69.20
69328;DHT22;56472;52.114;5.492;2023-02-28T05:35:44;6.00;69.30
69328;DHT22;56472;52.114;5.492;2023-02-28T05:38:11;6.00;69.20
69328;DHT22;56472;52.114;5.492;2023-02-28T05:40:39;6.00;69.20
69328;DHT22;56472;52.114;5.492;2023-02-28T05:43:10;6.00;69.10
69328;DHT22;56472;52.114;5.492;2023-02-28T05:45:37;6.00;69.10
69328;DHT22;56472;52.114;5.492;2023-02-28T05:48:04;6.00;69.00
69328;DHT22;56472;52.114;5.492;2023-02-28T05:50:31;6.00;69.10
69328;DHT22;56472;52.114;5.492;2023-02-28T05:52:58;5.90;69.20
69328;DHT22;56472;52.114;5.492;2023-02-28T05:55:25;5.90;69.10
69328;DHT22;56472;52.114;5.492;2023-02-28T05:57:52;5.90;69.00
69328;DHT22;56472;52.114;5.492;2023-02-28T06:00:19;5.90;69.20
69328;DHT22;56472;52.114;5.492;2023-02-28T06:02:46;5.90;69.30
69328;DHT22;56472;52.114;5.492;2023-02-28T06:05:17;5.90;69.20
69328;DHT22;56472;52.114;5.492;2023-02-28T06:07:44;5.90;69.20
69328;DHT22;56472;52.114;5.492;2023-02-28T06:10:12;5.90;69.20
69328;DHT22;56472;52.114;5.492;2023-02-28T06:12:40;5.80;69.20
69328;DHT22;56472;52.114;5.492;2023-02-28T06:15:12;5.80;69.20
69328;DHT22;56472;52.114;5.492;2023-02-28T06:17:40;5.70;69.20
69328;DHT22;56472;52.114;5.492;2023-02-28T06:20:08;5.70;70.10
69328;DHT22;56472;52.114;5.492;2023-02-28T06:22:37;5.70;69.30
69328;DHT22;56472;52.114;5.492;2023-02-28T06:25:04;5.60;69.50
69328;DHT22;56472;52.114;5.492;2023-02-28T06:27:32;5.60;69.90
69328;DHT22;56472;52.114;5.492;2023-02-28T06:30:00;5.50;70.10
69328;DHT22;56472;52.114;5.492;2023-02-28T06:32:27;5.40;70.30
69328;DHT22;56472;52.114;5.492;2023-02-28T06:34:54;5.40;70.50
69328;DHT22;56472;52.114;5.492;2023-02-28T06:37:21;5.40;70.70
69328;DHT22;56472;52.114;5.492;2023-02-28T06:39:48;5.40;70.90
69328;DHT22;56472;52.114;5.492;2023-02-28T06:42:15;5.40;71.00
69328;DHT22;56472;52.114;5.492;2023-02-28T06:44:42;5.50;71.30
69328;DHT22;56472;52.114;5.492;2023-02-28T06:47:09;5.50;72.20
69328;DHT22;56472;52.114;5.492;2023-02-28T06:49:36;5.50;71.30
69328;DHT22;56472;52.114;5.492;2023-02-28T06:52:03;5.50;71.30
69328;DHT22;56472;52.114;5.492;2023-02-28T06:54:31;5.50;71.40
69328;DHT22;56472;52.114;5.492;2023-02-28T06:56:58;5.60;71.60
69328;DHT22;56472;52.114;5.492;2023-02-28T06:59:25;5.60;71.50
69328;DHT22;56472;52.114;5.492;2023-02-28T07:01:52;5.60;71.50
69328;DHT22;56472;52.114;5.492;2023-02-28T07:04:19;5.60;71.60
69328;DHT22;56472;52.114;5.492;2023-02-28T07:06:46;5.70;71.60
69328;DHT22;56472;52.114;5.492;2023-02-28T07:09:13;5.60;71.70
69328;DHT22;56472;52.114;5.492;2023-02-28T07:11:40;5.70;71.80
69328;DHT22;56472;52.114;5.492;2023-02-28T07:14:09;5.70;71.90
69328;DHT22;56472;52.114;5.492;2023-02-28T07:16:36;5.70;71.90
69328;DHT22;56472;52.114;5.492;2023-02-28T07:19:03;5.80;72.00
69328;DHT22;56472;52.114;5.492;2023-02-28T07:21:30;5.80;72.10
69328;DHT22;56472;52.114;5.492;2023-02-28T07:23:57;5.80;72.00
69328;DHT22;56472;52.114;5.492;2023-02-28T07:26:24;5.90;72.20
69328;DHT22;56472;52.114;5.492;2023-02-28T07:28:51;5.90;72.20
69328;DHT22;56472;52.114;5.492;2023-02-28T07:31:18;5.90;72.30
69328;DHT22;56472;52.114;5.492;2023-02-28T07:33:45;5.90;72.30
69328;DHT22;56472;52.114;5.492;2023-02-28T07:36:14;6.00;72.40
69328;DHT22;56472;52.114;5.492;2023-02-28T07:38:43;6.00;72.40
69328;DHT22;56472;52.114;5.492;2023-02-28T07:41:15;6.00;72.50
69328;DHT22;56472;52.114;5.492;2023-02-28T07:43:42;6.10;72.60
69328;DHT22;56472;52.114;5.492;2023-02-28T07:46:12;6.10;72.70
69328;DHT22;56472;52.114;5.492;2023-02-28T07:48:39;6.20;72.80
69328;DHT22;56472;52.114;5.492;2023-02-28T07:51:06;6.20;72.80
69328;DHT22;56472;52.114;5.492;2023-02-28T07:53:33;6.20;72.80
69328;DHT22;56472;52.114;5.492;2023-02-28T07:56:01;6.30;72.90
69328;DHT22;56472;52.114;5.492;2023-02-28T07:58:30;6.30;73.00
69328;DHT22;56472;52.114;5.492;2023-02-28T08:00:57;6.40;73.00
69328;DHT22;56472;52.114;5.492;2023-02-28T08:03:31;6.40;72.90
69328;DHT22;56472;52.114;5.492;2023-02-28T08:05:57;6.50;72.90
69328;DHT22;56472;52.114;5.492;2023-02-28T08:08:24;6.50;73.00
69328;DHT22;56472;52.114;5.492;2023-02-28T08:10:57;6.60;72.80
69328;DHT22;56472;52.114;5.492;2023-02-28T08:13:24;6.60;72.70
69328;DHT22;56472;52.114;5.492;2023-02-28T08:15:51;6.60;72.60
69328;DHT22;56472;52.114;5.492;2023-02-28T08:18:18;6.70;72.60
69328;DHT22;56472;52.114;5.492;2023-02-28T08:20:44;6.70;72.60
69328;DHT22;56472;52.114;5.492;2023-02-28T08:23:11;6.70;72.50
69328;DHT22;56472;52.114;5.492;2023-02-28T08:25:38;6.80;72.40
69328;DHT22;56472;52.114;5.492;2023-02-28T08:28:05;6.80;71.60
69328;DHT22;56472;52.114;5.492;2023-02-28T08:30:32;6.90;71.30
69328;DHT22;56472;52.114;5.492;2023-02-28T08:32:59;6.90;71.10
69328;DHT22;56472;52.114;5.492;2023-02-28T08:35:26;6.90;70.70
69328;DHT22;56472;52.114;5.492;2023-02-28T08:37:53;6.90;70.40
69328;DHT22;56472;52.114;5.492;2023-02-28T08:40:20;7.00;70.20
69328;DHT22;56472;52.114;5.492;2023-02-28T08:42:47;7.00;69.80
69328;DHT22;56472;52.114;5.492;2023-02-28T08:45:15;7.00;69.10
69328;DHT22;56472;52.114;5.492;2023-02-28T08:47:42;7.10;68.60
69328;DHT22;56472;52.114;5.492;2023-02-28T08:50:09;7.10;68.20
69328;DHT22;56472;52.114;5.492;2023-02-28T08:52:36;7.10;67.60
69328;DHT22;56472;52.114;5.492;2023-02-28T08:55:03;7.10;67.30
69328;DHT22;56472;52.114;5.492;2023-02-28T08:57:30;7.20;67.00
69328;DHT22;56472;52.114;5.492;2023-02-28T08:59:57;7.30;66.60
69328;DHT22;56472;52.114;5.492;2023-02-28T09:02:23;7.30;66.60
69328;DHT22;56472;52.114;5.492;2023-02-28T09:04:50;7.40;65.70
69328;DHT22;56472;52.114;5.492;2023-02-28T09:07:17;7.50;65.80
69328;DHT22;56472;52.114;5.492;2023-02-28T09:09:44;7.60;65.20
69328;DHT22;56472;52.114;5.492;2023-02-28T09:12:22;7.70;64.20
69328;DHT22;56472;52.114;5.492;2023-02-28T09:14:50;7.90;62.90
69328;DHT22;56472;52.114;5.492;2023-02-28T09:17:17;8.00;62.10
69328;DHT22;56472;52.114;5.492;2023-02-28T09:19:44;8.00;60.80
69328;DHT22;56472;52.114;5.492;2023-02-28T09:22:11;8.10;59.20
69328;DHT22;56472;52.114;5.492;2023-02-28T09:24:38;8.10;58.00
69328;DHT22;56472;52.114;5.492;2023-02-28T09:27:06;8.10;57.50
69328;DHT22;56472;52.114;5.492;2023-02-28T09:29:34;8.10;57.00
69328;DHT22;56472;52.114;5.492;2023-02-28T09:32:02;8.20;57.00
69328;DHT22;56472;52.114;5.492;2023-02-28T09:34:29;8.20;56.50
69328;DHT22;56472;52.114;5.492;2023-02-28T09:36:57;8.30;55.60
69328;DHT22;56472;52.114;5.492;2023-02-28T09:39:24;8.30;54.10
69328;DHT22;56472;52.114;5.492;2023-02-28T09:41:55;8.40;53.70
69328;DHT22;56472;52.114;5.492;2023-02-28T09:44:37;8.40;52.80
69328;DHT22;56472;52.114;5.492;2023-02-28T09:47:27;8.40;52.10
69328;DHT22;56472;52.114;5.492;2023-02-28T09:49:59;8.40;52.20
69328;DHT22;56472;52.114;5.492;2023-02-28T09:52:30;8.50;52.30
69328;DHT22;56472;52.114;5.492;2023-02-28T09:57:51;8.70;52.00
69328;DHT22;56472;52.114;5.492;2023-02-28T10:00:33;8.80;51.50
69328;DHT22;56472;52.114;5.492;2023-02-28T10:05:54;9.00;50.90
69328;DHT22;56472;52.114;5.492;2023-02-28T10:08:27;9.20;50.30
69328;DHT22;56472;52.114;5.492;2023-02-28T10:11:01;9.30;49.10
69328;DHT22;56472;52.114;5.492;2023-02-28T10:13:45;9.40;48.70
69328;DHT22;56472;52.114;5.492;2023-02-28T10:16:26;9.50;47.50
69328;DHT22;56472;52.114;5.492;2023-02-28T10:19:22;9.50;46.70
69328;DHT22;56472;52.114;5.492;2023-02-28T10:22:00;9.50;46.40
69328;DHT22;56472;52.114;5.492;2023-02-28T10:24:32;9.60;45.90
69328;DHT22;56472;52.114;5.492;2023-02-28T10:27:21;9.50;45.60
69328;DHT22;56472;52.114;5.492;2023-02-28T10:29:54;9.50;45.10
69328;DHT22;56472;52.114;5.492;2023-02-28T10:32:33;9.60;45.30
69328;DHT22;56472;52.114;5.492;2023-02-28T10:35:21;9.60;45.50
69328;DHT22;56472;52.114;5.492;2023-02-28T10:37:53;9.60;46.00
69328;DHT22;56472;52.114;5.492;2023-02-28T10:42:57;9.70;45.00
69328;DHT22;56472;52.114;5.492;2023-02-28T10:45:25;9.70;44.20
69328;DHT22;56472;52.114;5.492;2023-02-28T10:50:30;9.80;43.80
69328;DHT22;56472;52.114;5.492;2023-02-28T10:53:27;9.90;44.20
69328;DHT22;56472;52.114;5.492;2023-02-28T10:56:14;9.90;44.50
69328;DHT22;56472;52.114;5.492;2023-02-28T11:01:24;10.00;44.40
69328;DHT22;56472;52.114;5.492;2023-02-28T11:03:52;10.10;43.90
69328;DHT22;56472;52.114;5.492;2023-02-28T11:06:34;10.10;43.80
69328;DHT22;56472;52.114;5.492;2023-02-28T11:09:04;10.10;43.50
69328;DHT22;56472;52.114;5.492;2023-02-28T11:11:43;10.20;43.50
69328;DHT22;56472;52.114;5.492;2023-02-28T11:14:25;10.20;42.80
69328;DHT22;56472;52.114;5.492;2023-02-28T11:16:54;10.30;42.90
69328;DHT22;56472;52.114;5.492;2023-02-28T11:19:26;10.30;42.30
69328;DHT22;56472;52.114;5.492;2023-02-28T11:22:03;10.30;43.00
69328;DHT22;56472;52.114;5.492;2023-02-28T11:24:37;10.40;43.70
69328;DHT22;56472;52.114;5.492;2023-02-28T11:29:59;10.40;43.10
69328;DHT22;56472;52.114;5.492;2023-02-28T11:32:30;10.50;43.20
69328;DHT22;56472;52.114;5.492;2023-02-28T11:37:28;10.60;43.80
69328;DHT22;56472;52.114;5.492;2023-02-28T11:39:56;10.70;43.70
69328;DHT22;56472;52.114;5.492;2023-02-28T11:45:36;10.80;43.20
69328;DHT22;56472;52.114;5.492;2023-02-28T11:51:21;11.00;42.60
69328;DHT22;56472;52.114;5.492;2023-02-28T11:56:39;11.10;42.50
69328;DHT22;56472;52.114;5.492;2023-02-28T12:02:05;11.30;41.90
69328;DHT22;56472;52.114;5.492;2023-02-28T12:04:53;11.40;41.20
69328;DHT22;56472;52.114;5.492;2023-02-28T12:10:22;11.60;41.30
69328;DHT22;56472;52.114;5.492;2023-02-28T12:18:25;11.80;40.60
69328;DHT22;56472;52.114;5.492;2023-02-28T12:21:15;11.90;40.90
69328;DHT22;56472;52.114;5.492;2023-02-28T12:26:50;12.00;40.60
69328;DHT22;56472;52.114;5.492;2023-02-28T12:34:38;12.20;39.90
69328;DHT22;56472;52.114;5.492;2023-02-28T12:37:29;12.20;40.00
69328;DHT22;56472;52.114;5.492;2023-02-28T12:40:10;12.40;40.10
69328;DHT22;56472;52.114;5.492;2023-02-28T12:42:48;12.40;39.20
69328;DHT22;56472;52.114;5.492;2023-02-28T12:45:24;12.50;38.80
69328;DHT22;56472;52.114;5.492;2023-02-28T12:48:00;12.60;38.60
69328;DHT22;56472;52.114;5.492;2023-02-28T12:50:28;12.70;39.30
69328;DHT22;56472;52.114;5.492;2023-02-28T12:58:37;14.70;39.20
69328;DHT22;56472;52.114;5.492;2023-02-28T13:09:39;18.60;31.10
69328;DHT22;56472;52.114;5.492;2023-02-28T13:12:14;19.20;30.80
69328;DHT22;56472;52.114;5.492;2023-02-28T13:14:42;19.60;30.90
69328;DHT22;56472;52.114;5.492;2023-02-28T13:17:12;20.30;30.90
69328;DHT22;56472;52.114;5.492;2023-02-28T13:19:43;21.00;29.80
69328;DHT22;56472;52.114;5.492;2023-02-28T13:22:42;21.60;29.00
69328;DHT22;56472;52.114;5.492;2023-02-28T13:27:50;22.90;27.30
69328;DHT22;56472;52.114;5.492;2023-02-28T13:38:42;24.80;24.70
69328;DHT22;56472;52.114;5.492;2023-02-28T13:44:21;25.40;24.40
69328;DHT22;56472;52.114;5.492;2023-02-28T13:51:52;26.50;23.70
69328;DHT22;56472;52.114;5.492;2023-02-28T14:03:25;27.40;22.60
69328;DHT22;56472;52.114;5.492;2023-02-28T14:11:43;27.90;21.30
69328;DHT22;56472;52.114;5.492;2023-02-28T14:17:05;28.10;20.90
69328;DHT22;56472;52.114;5.492;2023-02-28T14:19:34;28.30;20.90
69328;DHT22;56472;52.114;5.492;2023-02-28T14:22:32;28.20;20.70
69328;DHT22;56472;52.114;5.492;2023-02-28T14:25:36;28.20;20.60
69328;DHT22;56472;52.114;5.492;2023-02-28T14:31:03;28.50;20.70
69328;DHT22;56472;52.114;5.492;2023-02-28T14:36:35;28.90;20.70
69328;DHT22;56472;52.114;5.492;2023-02-28T14:39:24;29.10;21.10
69328;DHT22;56472;52.114;5.492;2023-02-28T14:41:51;29.20;20.20
69328;DHT22;56472;52.114;5.492;2023-02-28T14:44:26;29.30;20.30
69328;DHT22;56472;52.114;5.492;2023-02-28T14:47:01;29.40;20.20
69328;DHT22;56472;52.114;5.492;2023-02-28T14:49:43;29.50;20.00
69328;DHT22;56472;52.114;5.492;2023-02-28T14:52:19;29.50;19.40
69328;DHT22;56472;52.114;5.492;2023-02-28T14:54:56;29.50;19.50
69328;DHT22;56472;52.114;5.492;2023-02-28T14:57:32;29.40;19.60
69328;DHT22;56472;52.114;5.492;2023-02-28T15:00:04;29.40;19.60
69328;DHT22;56472;52.114;5.492;2023-02-28T15:02:38;29.30;19.60
69328;DHT22;56472;52.114;5.492;2023-02-28T15:07:45;28.90;19.50
69328;DHT22;56472;52.114;5.492;2023-02-28T15:10:26;28.80;19.20
69328;DHT22;56472;52.114;5.492;2023-02-28T15:13:00;28.50;19.40
69328;DHT22;56472;52.114;5.492;2023-02-28T15:20:56;28.10;19.90
69328;DHT22;56472;52.114;5.492;2023-02-28T15:23:25;27.90;19.50
69328;DHT22;56472;52.114;5.492;2023-02-28T15:25:53;27.40;19.80
69328;DHT22;56472;52.114;5.492;2023-02-28T15:28:22;27.00;20.00
69328;DHT22;56472;52.114;5.492;2023-02-28T15:31:01;26.60;20.40
69328;DHT22;56472;52.114;5.492;2023-02-28T15:33:34;26.50;20.40
69328;DHT22;56472;52.114;5.492;2023-02-28T15:36:13;26.30;20.50
69328;DHT22;56472;52.114;5.492;2023-02-28T15:38:41;26.20;20.80
69328;DHT22;56472;52.114;5.492;2023-02-28T15:41:34;26.30;20.90
69328;DHT22;56472;52.114;5.492;2023-02-28T15:44:34;26.40;20.60
69328;DHT22;56472;52.114;5.492;2023-02-28T15:47:21;26.80;20.60
69328;DHT22;56472;52.114;5.492;2023-02-28T15:50:01;27.20;20.60
69328;DHT22;56472;52.114;5.492;2023-02-28T15:52:41;27.50;20.60
69328;DHT22;56472;52.114;5.492;2023-02-28T15:55:21;27.80;20.60
69328;DHT22;56472;52.114;5.492;2023-02-28T15:57:55;28.00;19.90
69328;DHT22;56472;52.114;5.492;2023-02-28T16:00:27;28.10;19.80
69328;DHT22;56472;52.114;5.492;2023-02-28T16:02:54;28.20;19.70
69328;DHT22;56472;52.114;5.492;2023-02-28T16:05:27;28.20;19.70
69328;DHT22;56472;52.114;5.492;2023-02-28T16:08:17;28.10;19.80
69328;DHT22;56472;52.114;5.492;2023-02-28T16:10:44;27.90;19.60
69328;DHT22;56472;52.114;5.492;2023-02-28T16:13:11;27.70;19.80
69328;DHT22;56472;52.114;5.492;2023-02-28T16:15:43;27.20;19.50
69328;DHT22;56472;52.114;5.492;2023-02-28T16:18:11;26.70;19.50
69328;DHT22;56472;52.114;5.492;2023-02-28T16:20:39;26.20;19.70
69328;DHT22;56472;52.114;5.492;2023-02-28T16:23:06;25.60;20.10
69328;DHT22;56472;52.114;5.492;2023-02-28T16:25:40;24.90;20.20
69328;DHT22;56472;52.114;5.492;2023-02-28T16:28:24;24.10;20.50
69328;DHT22;56472;52.114;5.492;2023-02-28T16:30:52;23.40;21.20
69328;DHT22;56472;52.114;5.492;2023-02-28T16:33:19;22.70;21.90
69328;DHT22;56472;52.114;5.492;2023-02-28T16:35:46;22.00;22.40
69328;DHT22;56472;52.114;5.492;2023-02-28T16:38:13;21.30;23.00
69328;DHT22;56472;52.114;5.492;2023-02-28T16:40:40;20.80;23.70
69328;DHT22;56472;52.114;5.492;2023-02-28T16:43:09;20.20;24.00
69328;DHT22;56472;52.114;5.492;2023-02-28T16:45:39;19.60;24.20
69328;DHT22;56472;52.114;5.492;2023-02-28T16:48:11;19.10;24.60
69328;DHT22;56472;52.114;5.492;2023-02-28T16:50:39;18.60;25.10
69328;DHT22;56472;52.114;5.492;2023-02-28T16:53:06;18.20;25.70
69328;DHT22;56472;52.114;5.492;2023-02-28T16:55:34;17.80;25.90
69328;DHT22;56472;52.114;5.492;2023-02-28T16:58:02;17.40;26.30
69328;DHT22;56472;52.114;5.492;2023-02-28T17:00:31;17.00;26.80
69328;DHT22;56472;52.114;5.492;2023-02-28T17:02:59;16.70;27.10
69328;DHT22;56472;52.114;5.492;2023-02-28T17:05:29;16.50;27.70
69328;DHT22;56472;52.114;5.492;2023-02-28T17:07:59;16.20;28.20
69328;DHT22;56472;52.114;5.492;2023-02-28T17:10:26;16.00;28.50
69328;DHT22;56472;52.114;5.492;2023-02-28T17:12:53;15.70;28.80
69328;DHT22;56472;52.114;5.492;2023-02-28T17:15:29;15.40;29.10
69328;DHT22;56472;52.114;5.492;2023-02-28T17:17:56;15.10;29.50
69328;DHT22;56472;52.114;5.492;2023-02-28T17:20:24;14.90;29.70
69328;DHT22;56472;52.114;5.492;2023-02-28T17:22:52;14.60;29.80
69328;DHT22;56472;52.114;5.492;2023-02-28T17:25:19;14.30;30.20
69328;DHT22;56472;52.114;5.492;2023-02-28T17:27:47;14.10;30.30
69328;DHT22;56472;52.114;5.492;2023-02-28T17:30:19;13.80;30.50
69328;DHT22;56472;52.114;5.492;2023-02-28T17:32:46;13.60;30.90
69328;DHT22;56472;52.114;5.492;2023-02-28T17:35:13;13.40;30.90
69328;DHT22;56472;52.114;5.492;2023-02-28T17:37:41;13.20;31.60
69328;DHT22;56472;52.114;5.492;2023-02-28T17:40:16;13.00;32.10
69328;DHT22;56472;52.114;5.492;2023-02-28T17:42:44;12.90;32.30
69328;DHT22;56472;52.114;5.492;2023-02-28T17:45:11;12.70;32.70
69328;DHT22;56472;52.114;5.492;2023-02-28T17:47:39;12.50;32.80
69328;DHT22;56472;52.114;5.492;2023-02-28T17:50:06;12.30;32.70
69328;DHT22;56472;52.114;5.492;2023-02-28T17:52:33;12.20;33.20
69328;DHT22;56472;52.114;5.492;2023-02-28T17:55:04;12.10;33.40
69328;DHT22;56472;52.114;5.492;2023-02-28T17:57:31;11.90;34.00
69328;DHT22;56472;52.114;5.492;2023-02-28T17:59:58;11.80;34.30
69328;DHT22;56472;52.114;5.492;2023-02-28T18:02:25;11.60;34.70
69328;DHT22;56472;52.114;5.492;2023-02-28T18:04:54;11.50;35.10
69328;DHT22;56472;52.114;5.492;2023-02-28T18:07:21;11.40;35.40
69328;DHT22;56472;52.114;5.492;2023-02-28T18:09:50;11.30;35.30
69328;DHT22;56472;52.114;5.492;2023-02-28T18:12:17;11.20;35.80
69328;DHT22;56472;52.114;5.492;2023-02-28T18:14:44;11.10;36.10
69328;DHT22;56472;52.114;5.492;2023-02-28T18:17:12;11.00;36.30
69328;DHT22;56472;52.114;5.492;2023-02-28T18:19:39;10.90;36.40